createdAt,value
2018-11-27T00:01:14.430Z,24.90
2018-11-27T00:03:47.243Z,24.93
2018-11-27T00:06:14.714Z,25.50
2018-11-27T00:08:42.262Z,24.57
2018-11-27T00:11:09.473Z,25.17
2018-11-27T00:13:36.711Z,25.37
2018-11-27T00:16:03.924Z,26.13
2018-11-27T00:18:31.215Z,24.60
2018-11-27T00:20:58.483Z,25.17
2018-11-27T00:23:25.741Z,23.97
2018-11-27T00:25:53.149Z,26.07
2018-11-27T00:28:20.433Z,24.00
2018-11-27T00:30:47.659Z,24.80
2018-11-27T00:33:14.925Z,25.43
2018-11-27T00:35:42.181Z,25.23
2018-11-27T00:38:09.455Z,24.00
2018-11-27T00:40:37.004Z,25.63
2018-11-27T00:43:05.505Z,24.07
2018-11-27T00:45:32.777Z,25.00
2018-11-27T00:48:00.077Z,25.43
2018-11-27T00:50:27.377Z,24.00
2018-11-27T00:52:54.672Z,24.23
2018-11-27T00:55:22.298Z,25.07
2018-11-27T00:57:50.490Z,23.67
2018-11-27T01:00:19.064Z,26.23
2018-11-27T01:02:46.441Z,24.27
2018-11-27T01:05:14.481Z,26.53
2018-11-27T01:07:41.795Z,24.43
2018-11-27T01:10:12.447Z,23.53
2018-11-27T01:12:40.009Z,25.70
2018-11-27T01:15:07.853Z,25.33
2018-11-27T01:17:35.117Z,25.53
2018-11-27T01:20:02.386Z,26.60
2018-11-27T01:22:29.642Z,25.53
2018-11-27T01:24:57.042Z,25.77
2018-11-27T01:27:24.282Z,25.37
2018-11-27T01:29:51.553Z,24.60
2018-11-27T01:32:18.836Z,23.93
2018-11-27T01:34:46.101Z,24.73
2018-11-27T01:37:13.332Z,25.93
2018-11-27T01:39:40.578Z,26.13
2018-11-27T01:42:07.796Z,25.17
2018-11-27T01:44:35.021Z,24.77
2018-11-27T01:47:02.261Z,24.40
2018-11-27T01:49:29.830Z,24.70
2018-11-27T01:51:57.079Z,25.20
2018-11-27T01:54:24.296Z,24.60
2018-11-27T01:56:51.526Z,24.70
2018-11-27T01:59:19.165Z,22.67
2018-11-27T02:01:46.707Z,25.30
2018-11-27T02:04:14.272Z,24.83
2018-11-27T02:06:41.502Z,24.27
2018-11-27T02:09:09.045Z,24.33
2018-11-27T02:11:36.297Z,23.07
2018-11-27T02:14:03.797Z,24.10
2018-11-27T02:16:31.063Z,24.40
2018-11-27T02:18:58.332Z,25.13
2018-11-27T02:21:25.526Z,23.57
2018-11-27T02:23:52.781Z,24.67
2018-11-27T02:26:20.335Z,23.00
2018-11-27T02:28:47.570Z,24.63
2018-11-27T02:31:14.848Z,24.93
2018-11-27T02:33:42.079Z,22.87
2018-11-27T02:36:15.836Z,24.03
2018-11-27T02:38:43.099Z,23.90
2018-11-27T02:41:10.359Z,26.00
2018-11-27T02:43:37.598Z,24.47
2018-11-27T02:46:04.823Z,24.80
2018-11-27T02:48:32.417Z,25.17
2018-11-27T02:50:59.641Z,24.00
2018-11-27T02:53:26.889Z,24.57
2018-11-27T02:55:54.295Z,24.47
2018-11-27T02:58:21.573Z,23.60
2018-11-27T03:00:48.825Z,23.47
2018-11-27T03:03:16.326Z,23.20
2018-11-27T03:05:43.578Z,25.17
2018-11-27T03:08:10.940Z,23.17
2018-11-27T03:10:38.371Z,23.57
2018-11-27T03:13:05.877Z,23.27
2018-11-27T03:15:33.188Z,23.47
2018-11-27T03:18:00.483Z,23.73
2018-11-27T03:20:27.821Z,23.30
2018-11-27T03:22:55.113Z,22.70
2018-11-27T03:25:22.942Z,23.83
2018-11-27T03:27:51.093Z,22.10
2018-11-27T03:30:18.974Z,20.17
2018-11-27T03:32:46.277Z,22.30
2018-11-27T03:35:16.619Z,21.67
2018-11-27T03:37:44.114Z,21.70
2018-11-27T03:40:16.920Z,21.40
2018-11-27T03:42:44.824Z,21.40
2018-11-27T03:45:12.583Z,21.80
2018-11-27T03:47:40.177Z,21.87
2018-11-27T03:50:27.207Z,20.80
2018-11-27T03:52:54.450Z,21.33
2018-11-27T03:55:21.712Z,21.50
2018-11-27T03:57:49.003Z,21.70
2018-11-27T04:00:16.680Z,19.67
2018-11-27T04:02:44.225Z,19.67
2018-11-27T04:05:11.690Z,19.90
2018-11-27T04:07:38.960Z,19.27
2018-11-27T04:10:08.561Z,18.47
2018-11-27T04:12:36.124Z,17.93
2018-11-27T04:15:03.498Z,20.63
2018-11-27T04:17:30.840Z,18.87
2018-11-27T04:19:58.137Z,20.03
2018-11-27T04:22:25.427Z,18.33
2018-11-27T04:24:52.726Z,19.40
2018-11-27T04:27:20.014Z,18.60
2018-11-27T04:29:47.947Z,17.93
2018-11-27T04:32:15.274Z,17.77
2018-11-27T04:34:42.588Z,17.87
2018-11-27T04:37:09.929Z,17.57
2018-11-27T04:39:37.598Z,18.90
2018-11-27T04:42:05.433Z,17.53
2018-11-27T04:44:32.786Z,17.97
2018-11-27T04:47:00.129Z,17.83
2018-11-27T04:49:27.440Z,16.40
2018-11-27T04:51:54.729Z,16.70
2018-11-27T04:54:22.338Z,18.20
2018-11-27T04:56:49.633Z,18.27
2018-11-27T04:59:16.936Z,16.57
2018-11-27T05:01:44.810Z,17.73
2018-11-27T05:04:12.143Z,18.27
2018-11-27T05:06:40.027Z,16.57
2018-11-27T05:09:09.754Z,15.90
2018-11-27T05:11:37.321Z,16.23
2018-11-27T05:14:05.159Z,16.47
2018-11-27T05:16:32.477Z,16.97
2018-11-27T05:18:59.751Z,16.40
2018-11-27T05:21:27.077Z,16.37
2018-11-27T05:23:54.699Z,14.63
2018-11-27T05:26:22.034Z,15.47
2018-11-27T05:28:49.319Z,15.63
2018-11-27T05:31:16.596Z,14.17
2018-11-27T05:33:43.886Z,15.13
2018-11-27T05:36:11.225Z,14.10
2018-11-27T05:38:38.557Z,14.27
2018-11-27T05:41:05.847Z,14.47
2018-11-27T05:43:33.519Z,15.50
2018-11-27T05:46:01.049Z,14.77
2018-11-27T05:48:28.333Z,14.07
2018-11-27T05:50:55.914Z,13.03
2018-11-27T05:53:23.235Z,14.13
2018-11-27T05:55:50.574Z,13.67
2018-11-27T05:58:17.925Z,12.83
2018-11-27T06:00:45.221Z,13.00
2018-11-27T06:03:12.529Z,13.50
2018-11-27T06:05:39.875Z,13.73
2018-11-27T06:08:07.377Z,13.03
2018-11-27T06:10:34.690Z,13.17
2018-11-27T06:13:01.937Z,13.03
2018-11-27T06:15:29.227Z,13.03
2018-11-27T06:17:58.148Z,13.83
2018-11-27T06:20:25.426Z,12.77
2018-11-27T06:22:52.962Z,13.40
2018-11-27T06:25:20.806Z,13.73
2018-11-27T06:27:48.837Z,12.80
2018-11-27T06:30:16.773Z,12.93
2018-11-27T06:32:44.100Z,13.57
2018-11-27T06:35:12.024Z,13.60
2018-11-27T06:37:39.527Z,12.73
2018-11-27T06:40:09.166Z,13.60
2018-11-27T06:42:36.465Z,12.77
2018-11-27T06:45:04.246Z,12.77
2018-11-27T06:47:31.888Z,13.60
2018-11-27T06:49:59.193Z,13.97
2018-11-27T06:52:26.520Z,14.13
2018-11-27T06:54:54.090Z,13.73
2018-11-27T06:57:21.766Z,12.93
2018-11-27T06:59:49.285Z,13.70
2018-11-27T07:02:16.693Z,14.30
2018-11-27T07:04:44.063Z,14.27
2018-11-27T07:07:11.550Z,13.67
2018-11-27T07:09:38.838Z,15.03
2018-11-27T07:12:06.175Z,12.57
2018-11-27T07:14:33.537Z,12.87
2018-11-27T07:17:00.839Z,13.23
2018-11-27T07:19:28.121Z,13.17
2018-11-27T07:21:55.452Z,12.90
2018-11-27T07:24:22.742Z,13.67
2018-11-27T07:26:52.877Z,14.03
2018-11-27T07:29:17.670Z,12.17
2018-11-27T07:31:45.022Z,12.47
2018-11-27T07:34:12.577Z,12.87
2018-11-27T07:36:39.901Z,13.70
2018-11-27T07:39:07.248Z,12.33
2018-11-27T07:41:34.551Z,13.03
2018-11-27T07:44:01.896Z,12.80
2018-11-27T07:46:29.225Z,13.67
2018-11-27T07:48:56.813Z,12.90
2018-11-27T07:51:24.149Z,14.10
2018-11-27T07:53:51.666Z,12.13
2018-11-27T07:56:18.976Z,14.47
2018-11-27T07:58:46.577Z,14.00
2018-11-27T08:01:14.153Z,12.93
2018-11-27T08:03:41.489Z,13.60
2018-11-27T08:06:08.770Z,14.13
2018-11-27T08:08:36.407Z,12.33
2018-11-27T08:11:03.697Z,12.93
2018-11-27T08:13:31.014Z,12.97
2018-11-27T08:15:58.324Z,12.07
2018-11-27T08:18:25.595Z,12.40
2018-11-27T08:20:52.866Z,13.33
2018-11-27T08:23:20.178Z,13.47
2018-11-27T08:25:47.507Z,14.53
2018-11-27T08:28:14.782Z,12.47
2018-11-27T08:30:42.073Z,13.03
2018-11-27T08:33:09.390Z,12.70
2018-11-27T08:35:36.699Z,13.60
2018-11-27T08:38:04.254Z,13.37
2018-11-27T08:40:32.298Z,12.63
2018-11-27T08:42:59.629Z,12.77
2018-11-27T08:45:26.939Z,13.27
2018-11-27T08:47:55.020Z,11.90
2018-11-27T08:50:24.217Z,12.23
2018-11-27T08:52:53.012Z,13.57
2018-11-27T08:55:21.093Z,12.47
2018-11-27T08:57:48.416Z,13.83
2018-11-27T09:00:16.597Z,13.10
2018-11-27T09:02:43.921Z,12.90
2018-11-27T09:05:11.645Z,12.50
2018-11-27T09:07:38.917Z,12.27
2018-11-27T09:10:08.887Z,12.50
2018-11-27T09:12:36.184Z,13.10
2018-11-27T09:15:03.819Z,13.00
2018-11-27T09:17:31.481Z,12.50
2018-11-27T09:19:59.116Z,12.07
2018-11-27T09:22:26.437Z,13.00
2018-11-27T09:24:53.721Z,12.40
2018-11-27T09:27:21.062Z,12.03
2018-11-27T09:29:48.364Z,12.27
2018-11-27T09:32:15.883Z,11.67
2018-11-27T09:34:43.157Z,12.00
2018-11-27T09:37:10.521Z,11.77
2018-11-27T09:39:38.085Z,11.90
2018-11-27T09:42:05.362Z,11.27
2018-11-27T09:44:32.949Z,11.30
2018-11-27T09:47:00.274Z,11.50
2018-11-27T09:49:27.538Z,11.77
2018-11-27T09:51:54.835Z,12.13
2018-11-27T09:54:22.416Z,12.47
2018-11-27T09:56:50.361Z,10.83
2018-11-27T09:59:17.682Z,12.17
2018-11-27T10:01:45.254Z,11.23
2018-11-27T10:04:12.946Z,12.57
2018-11-27T10:06:40.530Z,11.53
2018-11-27T10:09:08.633Z,10.60
2018-11-27T10:11:36.114Z,11.30
2018-11-27T10:14:03.413Z,11.70
2018-11-27T10:16:30.698Z,12.40
2018-11-27T10:18:57.994Z,12.03
2018-11-27T10:21:25.279Z,11.40
2018-11-27T10:23:52.566Z,10.93
2018-11-27T10:26:19.828Z,11.67
2018-11-27T10:28:47.754Z,12.13
2018-11-27T10:31:15.074Z,11.57
2018-11-27T10:33:43.557Z,12.50
2018-11-27T10:36:10.890Z,11.93
2018-11-27T10:38:38.188Z,11.60
2018-11-27T10:41:05.525Z,12.83
2018-11-27T10:43:32.887Z,12.53
2018-11-27T10:46:00.201Z,11.27
2018-11-27T10:48:27.821Z,12.07
2018-11-27T10:50:55.364Z,9.70
2018-11-27T10:53:22.641Z,10.43
2018-11-27T10:55:49.929Z,9.97
2018-11-27T10:58:17.218Z,9.70
2018-11-27T11:00:49.917Z,10.27
2018-11-27T11:03:23.626Z,11.17
2018-11-27T11:05:51.150Z,9.93
2018-11-27T11:11:04.601Z,9.10
2018-11-27T11:13:31.841Z,10.03
2018-11-27T11:15:59.161Z,9.83
2018-11-27T11:18:26.633Z,9.53
2018-11-27T11:20:53.951Z,10.23
2018-11-27T11:23:21.166Z,10.33
2018-11-27T11:25:49.030Z,9.63
2018-11-27T11:28:17.084Z,9.13
2018-11-27T11:30:44.337Z,9.43
2018-11-27T11:33:11.607Z,9.07
2018-11-27T11:35:38.823Z,9.13
2018-11-27T11:38:06.565Z,9.40
2018-11-27T11:40:33.801Z,9.80
2018-11-27T11:43:01.031Z,9.97
2018-11-27T11:45:28.328Z,10.10
2018-11-27T11:47:55.593Z,10.33
2018-11-27T11:50:23.511Z,9.33
2018-11-27T11:52:51.486Z,8.30
2018-11-27T11:55:18.936Z,9.70
2018-11-27T11:57:46.319Z,10.00
2018-11-27T12:00:14.313Z,9.23
2018-11-27T12:02:41.557Z,10.27
2018-11-27T12:05:09.386Z,10.40
2018-11-27T12:07:36.609Z,9.97
2018-11-27T12:10:03.856Z,11.10
2018-11-27T12:12:31.079Z,9.67
2018-11-27T12:14:58.313Z,10.43
2018-11-27T12:17:25.542Z,9.97
2018-11-27T12:19:53.008Z,9.53
2018-11-27T12:22:20.213Z,10.07
2018-11-27T12:24:47.434Z,9.93
2018-11-27T12:27:14.726Z,8.50
2018-11-27T12:29:41.938Z,10.23
2018-11-27T12:32:09.178Z,9.73
2018-11-27T12:34:36.413Z,9.43
2018-11-27T12:37:03.845Z,9.43
2018-11-27T12:39:30.969Z,9.37
2018-11-27T12:41:58.482Z,9.27
2018-11-27T12:44:25.701Z,11.07
2018-11-27T12:46:53.203Z,12.37
2018-11-27T12:49:20.693Z,10.80
2018-11-27T12:51:48.228Z,9.37
2018-11-27T12:54:15.462Z,10.50
2018-11-27T12:56:43.767Z,11.43
2018-11-27T12:59:10.125Z,11.70
2018-11-27T13:01:37.423Z,8.77
2018-11-27T13:04:04.761Z,9.13
2018-11-27T13:06:32.018Z,9.47
2018-11-27T13:08:59.540Z,11.33
2018-11-27T13:11:26.793Z,9.80
2018-11-27T13:13:54.034Z,10.77
2018-11-27T13:16:21.257Z,10.60
2018-11-27T13:18:48.477Z,11.37
2018-11-27T13:21:15.986Z,10.43
2018-11-27T13:23:43.252Z,11.87
2018-11-27T13:26:10.504Z,13.70
2018-11-27T13:28:37.796Z,11.23
2018-11-27T13:31:07.480Z,10.57
2018-11-27T13:33:36.292Z,10.73
2018-11-27T13:36:03.935Z,12.30
2018-11-27T13:38:31.181Z,11.00
2018-11-27T13:40:58.444Z,12.87
2018-11-27T13:43:26.364Z,10.13
2018-11-27T13:45:54.061Z,10.57
2018-11-27T13:48:21.379Z,12.27
2018-11-27T13:50:48.710Z,12.70
2018-11-27T13:53:16.409Z,11.30
2018-11-27T13:55:43.733Z,12.00
2018-11-27T13:58:11.024Z,10.13
2018-11-27T14:00:38.305Z,11.30
2018-11-27T14:03:10.678Z,12.03
2018-11-27T14:05:33.014Z,10.77
2018-11-27T14:08:00.359Z,11.10
2018-11-27T14:10:27.879Z,10.87
2018-11-27T14:12:55.204Z,11.10
2018-11-27T14:15:24.328Z,11.20
2018-11-27T14:17:52.118Z,10.70
2018-11-27T14:20:19.560Z,11.43
2018-11-27T14:22:47.251Z,11.23
2018-11-27T14:25:14.810Z,10.73
2018-11-27T14:27:42.189Z,12.33
2018-11-27T14:30:11.499Z,12.20
2018-11-27T14:32:38.817Z,11.87
2018-11-27T14:35:06.113Z,12.73
2018-11-27T14:37:33.755Z,10.23
2018-11-27T14:40:01.050Z,11.07
2018-11-27T14:42:28.646Z,12.47
2018-11-27T14:44:55.937Z,10.73
2018-11-27T14:47:23.580Z,11.33
2018-11-27T14:49:50.921Z,11.77
2018-11-27T14:52:18.294Z,10.37
2018-11-27T14:54:45.567Z,11.53
2018-11-27T14:57:12.826Z,10.30
2018-11-27T14:59:40.122Z,10.20
2018-11-27T15:02:07.525Z,9.37
2018-11-27T15:04:34.852Z,8.17
2018-11-27T15:07:02.177Z,9.73
2018-11-27T15:09:29.738Z,10.70
2018-11-27T15:11:57.338Z,10.00
2018-11-27T15:14:25.474Z,9.50
2018-11-27T15:16:51.981Z,10.33
2018-11-27T15:19:19.586Z,8.27
2018-11-27T15:21:47.176Z,11.27
2018-11-27T15:24:14.506Z,10.70
2018-11-27T15:26:42.082Z,8.80
2018-11-27T15:29:09.388Z,8.90
2018-11-27T15:31:36.652Z,8.67
2018-11-27T15:34:04.253Z,8.87
2018-11-27T15:36:38.021Z,8.57
2018-11-27T15:39:07.751Z,8.97
2018-11-27T15:41:35.294Z,9.70
2018-11-27T15:44:02.786Z,8.60
2018-11-27T15:46:30.021Z,9.53
2018-11-27T15:48:57.269Z,9.27
2018-11-27T15:51:24.465Z,10.00
2018-11-27T15:53:51.689Z,9.77
2018-11-27T15:56:18.942Z,9.13
2018-11-27T15:58:46.191Z,9.87
2018-11-27T16:01:13.409Z,8.67
2018-11-27T16:03:40.642Z,9.77
2018-11-27T16:06:08.187Z,11.73
2018-11-27T16:08:35.625Z,10.50
2018-11-27T16:11:02.841Z,11.00
2018-11-27T16:13:30.390Z,10.97
2018-11-27T16:15:57.662Z,10.10
2018-11-27T16:18:24.925Z,10.40
2018-11-27T16:20:52.478Z,9.17
2018-11-27T16:23:19.787Z,9.17
2018-11-27T16:25:47.094Z,9.20
2018-11-27T16:28:14.367Z,10.00
2018-11-27T16:30:41.630Z,9.83
2018-11-27T16:33:09.021Z,10.00
2018-11-27T16:35:36.510Z,9.43
2018-11-27T16:38:03.837Z,8.97
2018-11-27T16:40:33.123Z,10.47
2018-11-27T16:43:00.746Z,9.63
2018-11-27T16:45:28.022Z,10.97
2018-11-27T16:47:55.326Z,10.67
2018-11-27T16:50:22.630Z,11.33
2018-11-27T16:52:50.269Z,10.47
2018-11-27T16:55:18.369Z,11.10
2018-11-27T16:57:45.998Z,10.80
2018-11-27T17:00:15.056Z,11.07
2018-11-27T17:02:42.344Z,11.03
2018-11-27T17:05:09.596Z,9.53
2018-11-27T17:07:36.947Z,10.50
2018-11-27T17:10:05.218Z,10.73
2018-11-27T17:12:32.518Z,9.13
2018-11-27T17:14:59.813Z,11.00
2018-11-27T17:17:27.065Z,10.90
2018-11-27T17:19:54.358Z,10.67
2018-11-27T17:22:21.671Z,10.70
2018-11-27T17:24:48.976Z,10.13
2018-11-27T17:27:16.697Z,9.80
2018-11-27T17:29:44.597Z,11.27
2018-11-27T17:32:11.946Z,9.77
2018-11-27T17:34:39.264Z,11.30
2018-11-27T17:37:06.770Z,9.80
2018-11-27T17:39:34.095Z,9.33
2018-11-27T17:42:01.656Z,9.23
2018-11-27T17:44:29.006Z,8.60
2018-11-27T17:46:56.244Z,9.10
2018-11-27T17:49:23.591Z,9.27
2018-11-27T17:51:51.185Z,10.17
2018-11-27T17:54:19.241Z,10.50
2018-11-27T17:56:46.537Z,9.90
2018-11-27T17:59:13.889Z,9.77
2018-11-27T18:01:41.472Z,10.00
2018-11-27T18:04:08.731Z,10.57
2018-11-27T18:06:35.959Z,9.07
2018-11-27T18:09:03.350Z,10.03
2018-11-27T18:11:30.604Z,8.03
2018-11-27T18:13:57.881Z,10.03
2018-11-27T18:16:25.126Z,10.30
2018-11-27T18:18:52.409Z,9.63
2018-11-27T18:21:19.695Z,13.00
2018-11-27T18:23:47.234Z,14.30
2018-11-27T18:26:14.487Z,11.47
2018-11-27T18:28:42.048Z,10.70
2018-11-27T18:31:09.287Z,10.93
2018-11-27T18:33:36.526Z,10.27
2018-11-27T18:36:03.812Z,10.80
2018-11-27T18:38:31.073Z,10.70
2018-11-27T18:40:58.311Z,10.30
2018-11-27T18:43:25.546Z,10.13
2018-11-27T18:45:52.833Z,10.63
2018-11-27T18:48:20.322Z,10.00
2018-11-27T18:50:47.645Z,10.73
2018-11-27T18:53:14.997Z,10.80
2018-11-27T18:55:42.307Z,9.20
2018-11-27T18:58:09.584Z,11.37
2018-11-27T19:00:36.867Z,10.63
2018-11-27T19:03:04.100Z,10.27
2018-11-27T19:05:31.377Z,12.47
2018-11-27T19:07:58.661Z,10.73
2018-11-27T19:10:28.520Z,12.03
2018-11-27T19:12:55.789Z,11.17
2018-11-27T19:15:27.028Z,10.17
2018-11-27T19:20:41.485Z,12.67
2018-11-27T19:23:08.785Z,11.33
2018-11-27T19:25:36.157Z,12.07
2018-11-27T19:28:03.397Z,12.63
2018-11-27T19:30:32.371Z,13.03
2018-11-27T19:32:57.833Z,11.73
2018-11-27T19:35:25.605Z,11.80
2018-11-27T19:37:52.389Z,11.50
2018-11-27T19:40:20.000Z,12.97
2018-11-27T19:42:47.279Z,13.07
2018-11-27T19:45:16.074Z,11.00
2018-11-27T19:47:43.314Z,10.20
2018-11-27T19:50:11.093Z,10.83
2018-11-27T19:52:38.385Z,11.50
2018-11-27T19:55:06.761Z,12.97
2018-11-27T19:57:33.998Z,13.83
2018-11-27T20:00:01.442Z,12.53
2018-11-27T20:02:28.690Z,12.20
2018-11-27T20:04:55.909Z,11.80
2018-11-27T20:07:23.493Z,11.17
2018-11-27T20:09:51.002Z,12.30
2018-11-27T20:12:18.334Z,11.93
2018-11-27T20:14:45.758Z,12.37
2018-11-27T20:17:14.058Z,12.87
2018-11-27T20:19:41.353Z,13.77
2018-11-27T20:22:08.592Z,12.00
2018-11-27T20:24:35.819Z,12.80
2018-11-27T20:27:03.030Z,11.90
2018-11-27T20:29:30.250Z,13.33
2018-11-27T20:31:57.822Z,15.23
2018-11-27T20:34:25.134Z,14.70
2018-11-27T20:36:52.641Z,14.27
2018-11-27T20:39:19.876Z,17.30
2018-11-27T20:41:47.083Z,13.80
2018-11-27T20:44:14.287Z,15.40
2018-11-27T20:46:42.201Z,18.53
2018-11-27T20:49:09.412Z,13.23
2018-11-27T20:51:36.643Z,18.00
2018-11-27T20:54:03.941Z,16.17
2018-11-27T20:56:31.162Z,13.23
2018-11-27T20:58:58.562Z,15.10
2018-11-27T21:01:26.101Z,10.77
2018-11-27T21:03:53.386Z,12.37
2018-11-27T21:06:20.567Z,12.03
2018-11-27T21:08:47.774Z,11.97
2018-11-27T21:11:15.057Z,12.80
2018-11-27T21:13:42.388Z,12.70
2018-11-27T21:16:09.629Z,13.10
2018-11-27T21:18:36.857Z,14.70
2018-11-27T21:21:04.138Z,14.03
2018-11-27T21:23:31.419Z,13.60
2018-11-27T21:26:04.616Z,12.20
2018-11-27T21:28:32.006Z,13.43
2018-11-27T21:30:59.265Z,12.63
2018-11-27T21:33:26.553Z,13.87
2018-11-27T21:35:54.093Z,11.63
2018-11-27T21:38:31.402Z,11.43
2018-11-27T21:40:59.021Z,14.03
2018-11-27T21:43:26.285Z,13.67
2018-11-27T21:45:53.562Z,13.47
2018-11-27T21:48:20.884Z,11.27
2018-11-27T21:50:48.229Z,13.17
2018-11-27T21:53:15.446Z,11.63
2018-11-27T21:55:42.721Z,13.67
2018-11-27T21:58:09.959Z,11.23
2018-11-27T22:00:38.052Z,12.70
2018-11-27T22:03:06.053Z,13.07
2018-11-27T22:05:33.549Z,12.63
2018-11-27T22:08:00.829Z,12.33
2018-11-27T22:10:28.247Z,13.63
2018-11-27T22:12:56.196Z,14.20
2018-11-27T22:15:25.146Z,10.33
2018-11-27T22:17:52.374Z,11.40
2018-11-27T22:20:21.507Z,13.87
2018-11-27T22:22:46.896Z,12.57
2018-11-27T22:25:14.126Z,12.40
2018-11-27T22:27:47.427Z,15.63
2018-11-27T22:30:15.673Z,18.40
2018-11-27T22:32:43.626Z,18.77
2018-11-27T22:35:10.994Z,14.30
2018-11-27T22:37:38.209Z,14.70
2018-11-27T22:40:10.165Z,12.70
2018-11-27T22:42:37.869Z,12.90
2018-11-27T22:45:06.542Z,12.37
2018-11-27T22:47:33.769Z,13.63
2018-11-27T22:50:01.022Z,12.70
2018-11-27T22:52:28.281Z,11.43
2018-11-27T22:54:55.531Z,12.57
2018-11-27T22:57:22.757Z,11.87
2018-11-27T22:59:49.982Z,12.17
2018-11-27T23:02:17.203Z,13.47
2018-11-27T23:04:44.471Z,13.50
2018-11-27T23:07:11.978Z,11.37
2018-11-27T23:09:39.185Z,14.00
2018-11-27T23:12:06.450Z,12.80
2018-11-27T23:14:33.967Z,12.77
2018-11-27T23:17:01.208Z,12.27
2018-11-27T23:19:28.393Z,12.37
2018-11-27T23:21:55.669Z,13.00
2018-11-27T23:24:22.901Z,10.70
2018-11-27T23:26:50.138Z,12.50
2018-11-27T23:29:17.342Z,12.47
2018-11-27T23:31:44.586Z,12.87
2018-11-27T23:34:11.776Z,11.63
2018-11-27T23:36:39.044Z,11.10
2018-11-27T23:39:07.119Z,11.27
2018-11-27T23:41:34.337Z,11.47
2018-11-27T23:44:01.585Z,13.07
2018-11-27T23:46:28.792Z,11.93
2018-11-27T23:48:56.212Z,13.40
2018-11-27T23:51:23.434Z,9.53
2018-11-27T23:53:50.695Z,13.30
2018-11-27T23:56:17.936Z,13.67
2018-11-27T23:58:45.169Z,18.23
